Time;durP1;ratioP1;P1;durP2;ratioP2;P2;SDS_P1;SDS_P2;PMS_P1;PMS_P2;Temp;Humidity;BMP_temperature;BMP_pressure;BME280_temperature;BME280_humidity;BME280_pressure;Samples;Min_cycle;Max_cycle;Signal;HPM_P1;HPM_P2
2022/08/25 00:09:11;;;;;;;3.22;1.60;;;14.50;99.90;;;;;;20391877;29;20039;-64
2022/08/25 00:19:17;;;;;;;2.33;1.67;;;14.70;99.90;;;;;;20406301;29;20052;-64
2022/08/25 00:29:21;;;;;;;2.13;1.67;;;14.80;99.90;;;;;;20412599;28;20435;-59
2022/08/25 00:39:26;;;;;;;2.95;1.92;;;15.00;99.90;;;;;;20484438;29;20074;-50
2022/08/25 00:49:42;;;;;;;2.72;1.73;;;15.00;99.90;;;;;;20483663;29;20035;-59
2022/08/25 00:59:45;;;;;;;2.50;1.80;;;15.10;99.90;;;;;;20490501;29;20052;-51
2022/08/25 01:09:51;;;;;;;2.65;1.90;;;15.20;99.90;;;;;;20419338;29;20107;-52
2022/08/25 01:19:54;;;;;;;3.20;1.95;;;15.10;99.90;;;;;;20402819;29;20048;-59
2022/08/25 01:29:57;;;;;;;3.35;2.20;;;15.00;99.90;;;;;;20402773;29;20130;-59
2022/08/25 01:39:59;;;;;;;2.25;2.05;;;14.80;99.90;;;;;;20387018;29;20091;-53
2022/08/25 01:50:05;;;;;;;2.20;2.00;;;14.70;99.90;;;;;;20402134;29;20031;-50
2022/08/25 02:00:11;;;;;;;2.25;1.90;;;14.70;99.90;;;;;;20442220;29;20040;-52
2022/08/25 02:10:14;;;;;;;2.83;2.08;;;14.80;99.90;;;;;;20401486;29;20044;-49
2022/08/25 02:20:17;;;;;;;2.55;2.00;;;14.90;99.90;;;;;;20406826;29;20083;-59
2022/08/25 02:30:20;;;;;;;3.95;2.10;;;14.80;99.90;;;;;;20414539;29;20071;-49
2022/08/25 02:40:23;;;;;;;3.58;2.50;;;14.70;99.90;;;;;;20414043;29;20035;-59
2022/08/25 02:50:25;;;;;;;4.07;2.60;;;14.40;99.90;;;;;;20397615;29;20103;-50
2022/08/25 03:00:28;;;;;;;2.80;2.50;;;14.20;99.90;;;;;;20452873;29;20040;-52
2022/08/25 03:10:31;;;;;;;2.92;2.67;;;14.00;99.90;;;;;;20411935;29;20040;-53
2022/08/25 03:20:34;;;;;;;3.22;2.72;;;14.00;99.90;;;;;;20410718;29;20187;-49
2022/08/25 03:30:37;;;;;;;5.93;3.08;;;13.80;99.90;;;;;;20410142;29;20418;-59
2022/08/25 03:40:39;;;;;;;3.97;3.30;;;13.70;99.90;;;;;;20409612;29;20043;-49
2022/08/25 03:50:48;;;;;;;3.65;3.15;;;13.60;99.90;;;;;;20468747;29;20031;-51
2022/08/25 04:00:50;;;;;;;3.65;3.10;;;13.50;99.90;;;;;;20485549;29;20457;-49
2022/08/25 04:10:54;;;;;;;4.05;3.33;;;13.40;99.90;;;;;;20407382;29;20487;-59
2022/08/25 04:21:05;;;;;;;6.38;3.88;;;13.40;99.90;;;;;;20406137;29;20047;-48
2022/08/25 04:31:08;;;;;;;4.00;3.58;;;13.30;99.90;;;;;;20405825;29;20039;-48
2022/08/25 04:41:14;;;;;;;5.38;3.42;;;13.30;99.90;;;;;;20404964;29;20067;-59
2022/08/25 04:51:19;;;;;;;4.47;3.70;;;13.30;99.90;;;;;;20420558;29;20036;-51
2022/08/25 05:01:24;;;;;;;5.00;4.50;;;13.30;99.90;;;;;;20424916;29;20035;-50
2022/08/25 05:11:27;;;;;;;6.00;3.70;;;13.40;99.90;;;;;;20482159;29;20031;-51
2022/08/25 05:21:31;;;;;;;4.32;3.67;;;13.60;99.90;;;;;;20481314;29;20051;-49
2022/08/25 05:31:35;;;;;;;5.22;4.35;;;13.70;99.90;;;;;;20458034;28;20483;-59
2022/08/25 05:41:38;;;;;;;6.20;3.58;;;13.80;99.90;;;;;;20419285;28;20067;-49
2022/08/25 05:51:40;;;;;;;6.22;3.63;;;13.90;99.90;;;;;;20450084;28;20043;-47
2022/08/25 06:12:04;;;;;;;3.42;3.10;;;14.30;99.90;;;;;;20494882;28;20043;-59
2022/08/25 06:22:07;;;;;;;3.85;3.42;;;14.50;99.90;;;;;;20465218;28;20052;-60
2022/08/25 06:32:09;;;;;;;5.00;3.08;;;14.70;99.90;;;;;;20441638;29;20039;-50
2022/08/25 06:42:12;;;;;;;3.50;2.20;;;15.50;99.90;;;;;;20492653;29;20039;-61
2022/08/25 06:52:15;;;;;;;2.35;2.03;;;17.80;99.90;;;;;;20491965;29;20401;-52
2022/08/25 07:02:19;;;;;;;2.78;2.30;;;19.70;99.90;;;;;;20496192;28;20040;-61
2022/08/25 07:12:23;;;;;;;2.70;2.20;;;20.50;99.90;;;;;;20474691;29;20551;-61
2022/08/25 07:22:25;;;;;;;3.28;1.80;;;21.20;99.90;;;;;;20473933;28;20084;-54
2022/08/25 07:32:28;;;;;;;2.30;2.10;;;21.80;99.90;;;;;;20438908;29;20555;-54
2022/08/25 07:42:30;;;;;;;2.53;2.10;;;22.80;99.90;;;;;;20487551;29;20035;-62
2022/08/25 07:52:32;;;;;;;3.53;2.50;;;23.60;98.40;;;;;;20487869;29;20066;-54
2022/08/25 08:02:38;;;;;;;2.20;2.00;;;23.70;99.90;;;;;;20463081;29;20111;-53
2022/08/25 08:12:41;;;;;;;3.35;2.53;;;24.30;99.10;;;;;;20406406;29;20552;-55
2022/08/25 08:22:44;;;;;;;4.55;2.15;;;24.60;98.70;;;;;;20454668;28;20501;-62
2022/08/25 08:32:48;;;;;;;2.72;2.00;;;24.60;97.40;;;;;;20451205;29;20493;-53
2022/08/25 08:43:18;;;;;;;2.80;2.58;;;25.10;97.70;;;;;;20403699;29;20441;-54
2022/08/25 08:53:41;;;;;;;2.75;2.30;;;25.50;98.10;;;;;;20300281;29;20048;-55
2022/08/25 09:03:51;;;;;;;3.97;2.60;;;25.60;98.30;;;;;;20331713;29;20040;-62
2022/08/25 09:14:21;;;;;;;3.80;3.10;;;25.90;97.80;;;;;;20315031;29;20108;-54
2022/08/25 09:24:53;;;;;;;3.47;2.80;;;26.10;96.40;;;;;;20342516;29;20062;-54
2022/08/25 09:34:56;;;;;;;4.22;3.25;;;26.30;97.10;;;;;;20507614;29;20067;-62
2022/08/25 09:44:58;;;;;;;3.38;2.88;;;26.30;96.80;;;;;;20501955;29;20098;-55
2022/08/25 09:55:07;;;;;;;3.08;2.63;;;26.50;96.20;;;;;;20442901;29;20031;-62
2022/08/25 10:05:23;;;;;;;4.68;3.40;;;26.80;96.00;;;;;;20508394;28;20039;-62
2022/08/25 10:15:34;;;;;;;3.67;3.05;;;27.20;94.90;;;;;;20503029;28;20055;-63
2022/08/25 10:25:48;;;;;;;3.45;3.15;;;26.70;96.00;;;;;;20487893;28;20090;-54
2022/08/25 10:35:57;;;;;;;3.70;3.13;;;26.60;95.50;;;;;;20505256;29;20039;-63
2022/08/25 10:46:02;;;;;;;6.15;3.08;;;26.80;95.60;;;;;;20488240;29;20039;-62
2022/08/25 10:56:26;;;;;;;5.05;3.65;;;27.40;95.10;;;;;;20506354;29;20458;-62
2022/08/25 11:06:42;;;;;;;3.38;3.08;;;27.70;95.30;;;;;;20500304;29;20385;-61
2022/08/25 11:17:09;;;;;;;3.33;3.00;;;27.50;93.20;;;;;;20486479;29;20059;-53
2022/08/25 11:27:21;;;;;;;3.58;2.20;;;27.50;94.10;;;;;;20502622;29;20062;-62
2022/08/25 11:37:26;;;;;;;4.38;2.88;;;27.70;94.10;;;;;;20487228;29;20097;-59
2022/08/25 11:47:32;;;;;;;5.05;3.95;;;27.70;94.50;;;;;;20442636;28;20043;-54
2022/08/25 11:57:34;;;;;;;8.52;5.80;;;27.70;95.60;;;;;;20439087;28;20031;-63
2022/08/25 12:18:26;;;;;;;7.63;5.97;;;27.80;95.40;;;;;;20442672;28;20051;-55
2022/08/25 12:28:52;;;;;;;9.83;6.57;;;27.80;94.10;;;;;;20446138;28;20115;-53
2022/08/25 12:39:18;;;;;;;6.68;6.07;;;27.70;95.00;;;;;;20405459;29;20040;-53
2022/08/25 12:49:31;;;;;;;8.15;5.72;;;27.60;93.90;;;;;;20465095;29;20035;-53
2022/08/25 12:59:41;;;;;;;8.00;6.65;;;27.20;95.70;;;;;;20492086;29;20031;-56
2022/08/25 13:10:06;;;;;;;6.95;5.40;;;27.20;94.60;;;;;;20402713;29;20039;-53
2022/08/25 13:20:11;;;;;;;8.47;6.40;;;27.30;96.60;;;;;;20403175;29;20421;-51
2022/08/25 13:30:29;;;;;;;8.45;7.30;;;27.20;94.70;;;;;;20402684;29;20406;-54
2022/08/25 13:40:35;;;;;;;;;;;27.10;94.70;;;;;;20402834;29;20039;-64
2022/08/25 13:50:41;;;;;;;11.98;7.60;;;27.10;93.30;;;;;;20402248;29;19911;-65
2022/08/25 14:00:47;;;;;;;8.15;7.32;;;26.90;94.10;;;;;;20427575;29;20545;-55
2022/08/25 14:11:22;;;;;;;8.93;7.10;;;26.50;94.20;;;;;;20402932;28;20043;-65
2022/08/25 14:21:27;;;;;;;7.90;6.57;;;26.70;95.60;;;;;;20150259;29;20118;-55
2022/08/25 14:31:33;;;;;;;9.73;7.13;;;26.50;94.90;;;;;;20153919;29;20041;-53
2022/08/25 14:41:43;;;;;;;10.77;8.27;;;25.40;94.60;;;;;;20172016;29;20041;-63
2022/08/25 14:51:47;;;;;;;11.80;8.75;;;24.30;96.60;;;;;;20235391;29;20106;-53
2022/08/25 15:01:50;;;;;;;9.38;8.07;;;24.40;95.30;;;;;;20482372;29;20445;-55
2022/08/25 15:11:55;;;;;;;9.23;6.93;;;23.00;97.40;;;;;;20427934;29;20039;-52
2022/08/25 15:21:58;;;;;;;14.27;8.55;;;21.90;99.50;;;;;;20411298;29;20047;-61
2022/08/25 15:32:05;;;;;;;9.57;8.32;;;21.90;99.60;;;;;;20410610;29;20473;-60
2022/08/25 15:42:11;;;;;;;10.57;8.65;;;21.30;99.90;;;;;;20417965;29;20035;-60
2022/08/25 15:52:13;;;;;;;11.00;8.27;;;21.10;99.90;;;;;;20473592;29;20098;-60
2022/08/25 16:02:16;;;;;;;9.23;8.15;;;21.30;99.90;;;;;;20475001;29;20067;-51
2022/08/25 16:12:19;;;;;;;11.48;8.93;;;21.20;99.90;;;;;;20407837;29;20039;-54
2022/08/25 16:22:21;;;;;;;10.35;8.98;;;21.20;99.90;;;;;;20408669;29;20052;-50
2022/08/25 16:32:24;;;;;;;11.52;10.05;;;20.40;99.90;;;;;;20440492;28;20031;-49
2022/08/25 16:42:28;;;;;;;11.70;9.50;;;19.50;99.90;;;;;;20426439;29;20102;-59
2022/08/25 17:02:58;;;;;;;12.43;9.35;;;18.60;99.90;;;;;;20496055;29;20047;-59
2022/08/25 17:13:01;;;;;;;11.85;9.43;;;18.20;99.90;;;;;;20449654;28;1346270;-52
2022/08/25 17:23:05;;;;;;;10.85;9.25;;;17.80;99.90;;;;;;20482405;29;20031;-50
2022/08/25 17:33:08;;;;;;;20.35;10.20;;;17.60;99.90;;;;;;20446814;29;20043;-52
2022/08/25 17:43:11;;;;;;;10.13;8.38;;;17.20;99.90;;;;;;20402810;29;20544;-49
2022/08/25 17:53:16;;;;;;;10.75;9.00;;;16.90;99.90;;;;;;20489261;28;20047;-59
2022/08/25 18:03:19;;;;;;;12.35;9.32;;;16.70;99.90;;;;;;20496227;29;20485;-49
2022/08/25 18:13:21;;;;;;;12.90;9.88;;;16.50;99.90;;;;;;20495466;28;20047;-49
2022/08/25 18:23:25;;;;;;;17.10;9.82;;;16.30;99.90;;;;;;20494606;29;20039;-51
2022/08/25 18:33:28;;;;;;;12.65;9.38;;;16.00;99.90;;;;;;20508487;29;20461;-52
2022/08/25 18:43:33;;;;;;;10.38;9.15;;;15.90;99.90;;;;;;20493099;29;20560;-49
2022/08/25 18:53:36;;;;;;;14.65;9.50;;;15.80;99.90;;;;;;20507265;29;20556;-52
2022/08/25 19:03:39;;;;;;;13.55;8.68;;;15.70;99.90;;;;;;20470383;28;20086;-63
2022/08/25 19:13:42;;;;;;;11.43;8.82;;;15.60;99.90;;;;;;20490460;28;20083;-59
2022/08/25 19:23:44;;;;;;;10.05;8.65;;;15.50;99.90;;;;;;20489348;29;20035;-63
2022/08/25 19:33:49;;;;;;;13.02;8.65;;;15.50;99.90;;;;;;20473858;28;20040;-65
2022/08/25 19:43:53;;;;;;;9.05;7.75;;;15.40;99.90;;;;;;20446356;29;20039;-60
2022/08/25 19:53:56;;;;;;;10.38;8.00;;;15.40;99.90;;;;;;20470841;28;20086;-60
2022/08/25 20:03:58;;;;;;;9.35;7.93;;;15.50;99.90;;;;;;20450031;28;20034;-59
2022/08/25 20:14:01;;;;;;;9.52;8.00;;;15.50;99.90;;;;;;20393882;28;20059;-60
2022/08/25 20:34:28;;;;;;;10.15;8.18;;;15.30;99.90;;;;;;20463875;28;20099;-61
2022/08/25 20:44:33;;;;;;;13.02;8.70;;;15.40;99.90;;;;;;20415552;28;20047;-60
2022/08/25 20:54:36;;;;;;;11.25;8.27;;;15.40;99.90;;;;;;20449652;28;20493;-61
2022/08/25 21:04:40;;;;;;;10.35;7.72;;;15.30;99.90;;;;;;20434176;29;20510;-64
2022/08/25 21:14:43;;;;;;;9.10;7.80;;;15.40;99.90;;;;;;20413040;29;20110;-48
2022/08/25 21:24:46;;;;;;;9.73;7.65;;;15.60;99.90;;;;;;20490788;28;20094;-49
2022/08/25 21:34:54;;;;;;;10.23;7.05;;;15.90;99.90;;;;;;20520080;28;20110;-52
2022/08/25 21:44:57;;;;;;;8.98;7.20;;;16.10;99.90;;;;;;20501338;29;20069;-60
2022/08/25 21:55:01;;;;;;;9.55;7.82;;;16.20;99.90;;;;;;20506716;28;20265;-60
2022/08/25 22:05:04;;;;;;;14.50;8.65;;;16.40;99.90;;;;;;20490701;29;20109;-51
2022/08/25 22:15:06;;;;;;;9.45;7.63;;;16.50;99.90;;;;;;20506006;28;20059;-52
2022/08/25 22:25:09;;;;;;;14.15;9.05;;;16.50;99.90;;;;;;20522225;28;20118;-53
2022/08/25 22:35:12;;;;;;;11.70;9.40;;;16.60;99.90;;;;;;20517148;28;20039;-47
2022/08/25 22:45:16;;;;;;;9.77;7.28;;;16.70;99.90;;;;;;20492081;29;20039;-52
2022/08/25 22:55:19;;;;;;;12.00;8.73;;;16.70;99.90;;;;;;20492489;29;20125;-52
2022/08/25 23:05:23;;;;;;;14.85;11.63;;;16.80;99.90;;;;;;20460569;29;20374;-49
2022/08/25 23:15:26;;;;;;;19.35;15.07;;;16.50;99.90;;;;;;20491075;28;20572;-53
2022/08/25 23:25:30;;;;;;;23.45;17.45;;;16.30;99.90;;;;;;20490437;29;20181;-47
2022/08/25 23:35:32;;;;;;;24.77;19.23;;;16.00;99.90;;;;;;20505613;29;20043;-60
2022/08/25 23:45:37;;;;;;;25.63;19.35;;;15.80;99.90;;;;;;20488427;28;20094;-52
2022/08/25 23:55:41;;;;;;;27.38;19.50;;;15.70;99.90;;;;;;20488260;29;20039;-51
